createdAt,value
2023-02-04T10:01:15.825Z,9.44
2023-02-04T10:05:33.563Z,9.61
2023-02-04T10:08:01.216Z,9.65
2023-02-04T10:10:28.779Z,9.66
2023-02-04T10:13:01.331Z,9.63
2023-02-04T10:15:29.025Z,9.63
2023-02-04T10:18:07.200Z,9.84
2023-02-04T10:20:34.901Z,9.88
2023-02-04T10:23:02.208Z,9.88
2023-02-04T10:25:29.545Z,9.91
2023-02-04T10:28:00.598Z,9.93
2023-02-04T10:30:43.734Z,9.96
2023-02-04T10:33:24.944Z,10.11
2023-02-04T10:35:56.745Z,10.04
2023-02-04T10:38:24.859Z,10.18
2023-02-04T10:41:06.122Z,10.16
2023-02-04T10:43:33.753Z,10.15
2023-02-04T10:46:05.486Z,10.14
2023-02-04T10:48:43.280Z,10.26
2023-02-04T10:51:13.826Z,10.21
2023-02-04T10:53:59.995Z,10.21
2023-02-04T10:56:27.314Z,10.13
2023-02-04T10:58:54.628Z,10.11
2023-02-04T11:01:22.086Z,10.30
2023-02-04T11:03:52.330Z,10.11
2023-02-04T11:06:24.821Z,10.04
2023-02-04T11:08:54.670Z,10.07
2023-02-04T11:11:26.415Z,10.09
2023-02-04T11:13:55.110Z,9.95
2023-02-04T11:16:47.400Z,10.00
2023-02-04T11:19:16.457Z,9.90
2023-02-04T11:21:46.114Z,9.75
2023-02-04T11:24:16.127Z,9.88
2023-02-04T11:27:09.108Z,9.76
2023-02-04T11:29:39.051Z,9.69
2023-02-04T11:32:38.188Z,9.64
2023-02-04T11:35:31.929Z,9.64
2023-02-04T11:37:59.885Z,9.54
2023-02-04T11:40:37.925Z,9.56
2023-02-04T11:43:15.884Z,9.59
2023-02-04T11:45:44.510Z,9.50
2023-02-04T11:48:20.438Z,9.54
2023-02-04T11:51:03.528Z,9.60
2023-02-04T11:53:34.911Z,9.84
2023-02-04T11:56:02.375Z,9.74
2023-02-04T11:58:32.116Z,9.72
2023-02-04T12:00:59.887Z,9.74
2023-02-04T12:03:34.320Z,9.84
2023-02-04T12:06:03.336Z,9.99
2023-02-04T12:08:36.821Z,9.80
2023-02-04T12:11:27.348Z,9.88
2023-02-04T12:13:59.773Z,9.88
2023-02-04T12:16:27.111Z,9.88
2023-02-04T12:18:55.498Z,9.80
2023-02-04T12:21:22.817Z,9.88
2023-02-04T12:23:50.115Z,9.93
2023-02-04T12:26:17.484Z,9.91
2023-02-04T12:28:44.764Z,9.68
2023-02-04T12:31:12.153Z,9.92
2023-02-04T12:33:39.510Z,9.90
2023-02-04T12:36:07.666Z,10.01
2023-02-04T12:38:35.003Z,9.96
2023-02-04T12:41:02.333Z,10.12
2023-02-04T12:43:29.620Z,10.01
2023-02-04T12:45:56.934Z,10.05
2023-02-04T12:48:25.986Z,9.98
2023-02-04T12:50:53.406Z,9.95
2023-02-04T12:53:20.687Z,9.94
2023-02-04T12:55:48.080Z,9.81
2023-02-04T12:58:15.383Z,9.89
2023-02-04T13:00:42.946Z,9.92
2023-02-04T13:03:10.257Z,9.95
2023-02-04T13:05:37.540Z,9.97
2023-02-04T13:08:05.210Z,9.96
2023-02-04T13:10:32.551Z,10.01
2023-02-04T13:13:01.967Z,10.09
2023-02-04T13:15:30.950Z,10.14
2023-02-04T13:17:58.877Z,10.30
2023-02-04T13:20:26.198Z,10.34
2023-02-04T13:22:53.519Z,10.45
2023-02-04T13:25:20.872Z,10.38
2023-02-04T13:27:48.339Z,10.52
2023-02-04T13:30:16.150Z,10.38
2023-02-04T13:32:43.862Z,10.36
2023-02-04T13:35:11.298Z,10.52
2023-02-04T13:37:38.686Z,10.68
2023-02-04T13:40:09.335Z,10.56
2023-02-04T13:42:36.820Z,10.64
2023-02-04T13:45:07.651Z,10.52
2023-02-04T13:47:35.167Z,10.52
2023-02-04T13:50:02.507Z,10.57
2023-02-04T13:52:29.876Z,10.53
2023-02-04T13:54:57.203Z,10.52
2023-02-04T13:57:24.555Z,10.58
2023-02-04T13:59:51.874Z,10.67
2023-02-04T14:02:21.254Z,10.74
2023-02-04T14:04:48.613Z,10.89
2023-02-04T14:07:16.041Z,10.60
2023-02-04T14:09:43.665Z,10.71
2023-02-04T14:12:11.026Z,10.73
2023-02-04T14:14:38.369Z,10.70
2023-02-04T14:17:05.763Z,10.52
2023-02-04T14:19:34.450Z,10.62
2023-02-04T14:22:02.829Z,10.72
2023-02-04T14:24:30.212Z,10.79
2023-02-04T14:26:57.550Z,10.80
2023-02-04T14:29:24.897Z,10.96
2023-02-04T14:31:52.214Z,10.95
2023-02-04T14:34:19.580Z,10.90
2023-02-04T14:36:46.884Z,11.07
2023-02-04T14:39:14.164Z,11.02
2023-02-04T14:41:41.455Z,10.95
2023-02-04T14:44:08.885Z,10.87
2023-02-04T14:46:36.334Z,11.04
2023-02-04T14:49:03.666Z,11.09
2023-02-04T14:51:30.947Z,11.02
2023-02-04T14:53:58.239Z,11.10
2023-02-04T14:56:25.525Z,11.05
2023-02-04T14:58:52.811Z,11.16
2023-02-04T15:01:20.493Z,10.98
2023-02-04T15:03:47.849Z,11.10
2023-02-04T15:06:15.264Z,11.10
2023-02-04T15:08:44.898Z,11.12
2023-02-04T15:11:13.019Z,10.82
2023-02-04T15:13:40.324Z,10.97
2023-02-04T15:16:07.670Z,10.85
2023-02-04T15:18:35.212Z,10.60
2023-02-04T15:21:02.937Z,10.68
2023-02-04T15:23:30.239Z,10.78
2023-02-04T15:25:57.747Z,10.74
2023-02-04T15:28:26.838Z,10.80
2023-02-04T15:30:54.333Z,10.89
2023-02-04T15:33:21.720Z,10.77
2023-02-04T15:35:49.135Z,10.79
2023-02-04T15:38:16.520Z,10.79
2023-02-04T15:40:43.901Z,10.81
2023-02-04T15:43:11.374Z,10.86
2023-02-04T15:45:43.690Z,10.81
2023-02-04T15:48:11.633Z,10.80
2023-02-04T15:50:40.104Z,10.85
2023-02-04T15:53:07.394Z,10.62
2023-02-04T15:55:36.046Z,10.62
2023-02-04T15:58:03.382Z,10.59
2023-02-04T16:00:30.944Z,10.53
2023-02-04T16:02:58.498Z,10.68
2023-02-04T16:05:25.889Z,10.56
2023-02-04T16:07:53.198Z,10.56
2023-02-04T16:10:21.009Z,10.43
2023-02-04T16:12:48.491Z,10.35
2023-02-04T16:15:16.090Z,10.31
2023-02-04T16:17:44.132Z,10.28
2023-02-04T16:20:12.209Z,10.29
2023-02-04T16:22:39.525Z,10.25
2023-02-04T16:25:08.320Z,10.29
2023-02-04T16:27:35.940Z,10.27
2023-02-04T16:30:04.942Z,10.08
2023-02-04T16:32:35.049Z,10.10
2023-02-04T16:35:04.272Z,10.22
2023-02-04T16:37:32.118Z,10.16
2023-02-04T16:39:59.484Z,10.19
2023-02-04T16:42:26.979Z,9.95
2023-02-04T16:44:54.288Z,10.00
2023-02-04T16:47:21.657Z,9.90
2023-02-04T16:49:49.683Z,9.90
2023-02-04T16:52:17.415Z,10.07
2023-02-04T16:54:44.846Z,10.10
2023-02-04T16:57:14.624Z,9.94
2023-02-04T16:59:42.128Z,10.01
2023-02-04T17:02:10.735Z,9.88
2023-02-04T17:04:38.045Z,10.08
2023-02-04T17:07:06.336Z,10.01
2023-02-04T17:09:33.696Z,9.92
2023-02-04T17:12:01.064Z,9.88
2023-02-04T17:14:28.573Z,9.93
2023-02-04T17:16:55.945Z,9.94
2023-02-04T17:19:24.181Z,9.86
2023-02-04T17:21:51.543Z,9.95
2023-02-04T17:24:19.528Z,9.88
2023-02-04T17:26:46.836Z,9.80
2023-02-04T17:29:21.895Z,9.86
2023-02-04T17:31:49.385Z,9.70
2023-02-04T17:34:16.754Z,9.64
2023-02-04T17:36:44.042Z,9.51
2023-02-04T17:39:11.371Z,9.50
2023-02-04T17:41:39.246Z,9.38
2023-02-04T17:44:06.591Z,9.29
2023-02-04T17:46:34.427Z,9.17
2023-02-04T17:49:01.828Z,9.17
2023-02-04T17:51:29.245Z,9.10
2023-02-04T17:53:56.606Z,9.20
2023-02-04T17:56:26.167Z,9.33
2023-02-04T17:58:56.149Z,9.21
2023-02-04T18:01:25.286Z,9.07
2023-02-04T18:03:52.831Z,9.11
2023-02-04T18:06:28.946Z,9.24
2023-02-04T18:09:02.109Z,9.15
2023-02-04T18:11:40.272Z,9.02
2023-02-04T18:14:27.381Z,9.06
2023-02-04T18:17:00.459Z,8.95
2023-02-04T18:19:37.034Z,9.03
2023-02-04T18:22:17.333Z,8.96
2023-02-04T18:24:48.790Z,9.14
